Latest Weather Observations for Trangie

IDN60801

Issued at 10:32 am EST Tuesday 23 May 2017 (issued every 30 minutes, with the page automatically refreshed every 10 minutes)

About weather observations | Map of weather stations | Latest weather observations for NSW | Other Formats
Station Details ID: 051049 Name: TRANGIE RESEARCH STATION AWS Lat: -31.99 Lon: 147.95 Height: 215.0 m
Data from the previous 72 hours. | See also: Recent months at Trangie
Date/Time
EST
Temp
°C
App
Temp
°C
Dew
Point
°C
Rel
Hum
%
Delta-T
°C
Wind Press
QNH
hPa
Press
MSL
hPa
Rain since
9am
mm
Dir  Spd
km/h
Gust
km/h
Spd
kts
Gust
kts
23/10:30am 19.5 18.1 12.3 63 4.0 N 11 15 6 8 1022.0 1021.9 0.0
23/10:00am 19.4 18.3 11.9 62 4.2 NNE 9 13 5 7 1022.0 1021.9 0.0
23/09:30am 17.4 15.9 11.9 70 3.0 NE 11 15 6 8 1021.9 1021.8 0.0
23/09:00am 15.8 14.8 13.5 86 1.3 NE 11 15 6 8 1021.9 1021.8 0.0
23/08:30am 13.3 12.8 12.7 96 0.3 NE 7 11 4 6 1021.9 1021.8 0.0
23/08:00am 11.2 9.7 10.6 96 0.3 NNE 9 11 5 6 1021.7 1021.6 0.0
23/07:30am 9.6 7.7 9.0 96 0.3 NNE 9 11 5 6 1021.5 1021.4 0.0
23/07:00am 8.5 5.9 7.9 96 0.3 NNE 11 15 6 8 1021.4 1021.3 0.0
23/06:30am 8.6 6.4 8.0 96 0.3 NNE 9 13 5 7 1021.2 1021.1 0.0
23/06:00am 9.2 6.8 8.6 96 0.3 NNE 11 15 6 8 1021.0 1020.9 0.0
23/05:30am 8.7 6.5 7.9 95 0.4 NNE 9 13 5 7 1020.7 1020.6 0.0
23/05:00am 7.6 5.5 6.7 94 0.4 NE 7 9 4 5 1020.6 1020.5 0.0
23/04:30am 7.7 5.8 6.8 94 0.4 NNE 6 7 3 4 1020.6 1020.5 0.0
23/04:00am 9.1 7.0 8.2 94 0.4 NE 9 9 5 5 1020.4 1020.3 0.0
23/03:30am 8.6 6.7 7.7 94 0.4 NNE 7 9 4 5 1020.4 1020.3 0.0
23/03:00am 8.2 6.2 7.1 93 0.5 NNE 7 9 4 5 1020.3 1020.2 0.0
23/02:30am 8.2 6.4 7.0 92 0.6 NNE 6 7 3 4 1020.5 1020.4 0.0
23/02:00am 8.3 6.4 6.8 90 0.7 NNE 6 7 3 4 1020.6 1020.5 0.0
23/01:30am 8.8 6.8 7.3 90 0.7 NNE 7 9 4 5 1020.7 1020.6 0.0
23/01:00am 8.3 6.4 6.6 89 0.8 NNE 6 9 3 5 1021.0 1020.9 0.0
23/12:30am 9.1 6.9 7.9 92 0.6 NNE 9 11 5 6 1021.2 1021.1 0.0
23/12:00am 8.8 6.9 7.7 93 0.5 NE 7 9 4 5 1021.4 1021.3 0.0
 
Date/Time
EST
Temp
°C
App
Temp
°C
Dew
Point
°C
Rel
Hum
%
Delta-T
°C
Wind Press
QNH
hPa
Press
MSL
hPa
Rain since
9am
mm
Dir  Spd
km/h
Gust
km/h
Spd
kts
Gust
kts
22/11:30pm 8.6 8.0 7.4 92 0.6 CALM 0 0 0 0 1021.5 1021.4 0.0
22/11:00pm 8.5 7.9 7.3 92 0.6 CALM 0 0 0 0 1021.6 1021.5 0.0
22/10:30pm 8.3 7.2 6.8 90 0.7 SSE 2 7 1 4 1021.6 1021.5 0.0
22/10:00pm 8.8 8.1 6.9 88 0.9 CALM 0 0 0 0 1021.7 1021.6 0.0
22/09:30pm 9.8 9.3 7.7 87 1.0 CALM 0 0 0 0 1021.7 1021.6 0.0
22/09:00pm 11.2 9.9 9.3 88 1.0 SSE 6 7 3 4 1021.5 1021.4 0.0
22/08:30pm 9.5 7.7 7.3 86 1.1 S 6 7 3 4 1021.6 1021.5 0.0
22/08:00pm 11.4 11.1 8.6 83 1.4 CALM 0 0 0 0 1021.4 1021.3 0.0
22/07:30pm 12.5 12.3 9.1 80 1.7 CALM 0 0 0 0 1021.2 1021.1 0.0
22/07:00pm 13.1 12.6 9.4 78 1.9 SSW 2 7 1 4 1021.1 1021.0 0.0
22/06:30pm 13.0 12.7 8.5 74 2.3 CALM 0 0 0 0 1021.0 1020.9 0.0
22/06:00pm 14.5 13.6 9.3 71 2.7 SW 4 7 2 4 1020.9 1020.8 0.0
22/05:30pm 16.0 14.8 8.2 60 4.0 SW 4 6 2 3 1020.7 1020.6 0.0
22/05:00pm 18.5 16.8 8.5 52 5.2 SW 7 9 4 5 1020.5 1020.4 0.0
22/04:30pm 20.8 19.3 8.4 45 6.6 WSW 6 9 3 5 1020.5 1020.4 0.0
22/04:00pm 21.3 19.6 8.2 43 6.9 W 7 11 4 6 1020.4 1020.3 0.0
22/03:30pm 21.4 19.2 8.0 42 7.1 NW 9 11 5 6 1020.4 1020.3 0.0
22/03:00pm 21.3 20.2 8.6 44 6.7 W 4 7 2 4 1020.2 1020.1 0.0
22/02:30pm 21.6 19.6 8.8 44 6.8 NW 9 15 5 8 1020.5 1020.4 0.0
22/02:00pm 21.2 19.4 10.7 51 5.8 NW 11 15 6 8 1020.7 1020.6 0.0
22/01:30pm 20.8 20.0 11.2 54 5.3 N 6 13 3 7 1021.0 1020.9 0.0
22/01:00pm 19.9 19.5 12.4 62 4.2 NW 6 9 3 5 1021.3 1021.2 0.0
22/12:30pm 18.6 18.1 12.6 68 3.4 WNW 7 11 4 6 1021.7 1021.6 0.0
22/12:00pm 17.5 17.2 12.6 73 2.7 NW 6 9 3 5 1022.1 1022.0 0.0
22/11:30am 16.0 16.5 14.9 93 0.6 NE 6 9 3 5 1022.8 1022.8 0.0
22/11:00am 14.1 14.1 13.5 96 0.3 ENE 6 9 3 5 1023.1 1023.0 0.0
22/10:30am 13.2 12.7 12.6 96 0.3 ENE 7 11 4 6 1023.6 1023.5 0.0
22/10:00am 12.8 11.8 12.2 96 0.3 NE 9 15 5 8 1023.8 1023.7 0.0
22/09:30am 12.7 11.3 12.1 96 0.3 NNE 11 15 6 8 1023.7 1023.6 0.0
22/09:00am 12.3 11.1 11.7 96 0.3 NE 9 15 5 8 1023.7 1023.6 0.0
22/08:30am 11.8 10.1 11.2 96 0.3 NNE 11 19 6 10 1023.7 1023.6 0.0
22/08:00am 10.6 8.6 10.0 96 0.3 NNE 11 17 6 9 1023.4 1023.3 0.0
22/07:30am 8.8 7.1 8.2 96 0.3 NE 7 11 4 6 1023.1 1023.0 0.0
22/07:00am 6.0 3.8 5.1 94 0.4 S 6 7 3 4 1022.7 1022.7 0.0
22/06:30am 6.0 4.9 5.1 94 0.4 CALM 0 0 0 0 1022.5 1022.5 0.0
22/06:00am 6.1 5.0 5.2 94 0.4 CALM 0 0 0 0 1022.1 1022.0 0.0
22/05:30am 6.5 5.5 5.6 94 0.4 CALM 0 0 0 0 1021.8 1021.7 0.0
22/05:00am 7.1 5.1 6.2 94 0.4 SSW 6 7 3 4 1021.8 1021.7 0.0
22/04:30am 6.0 4.1 4.8 92 0.5 S 4 7 2 4 1021.6 1021.5 0.0
22/04:00am 7.0 6.0 5.8 92 0.5 CALM 0 2 0 1 1021.5 1021.4 0.0
22/03:30am 8.0 6.1 6.9 93 0.5 E 6 7 3 4 1021.4 1021.3 0.0
22/03:00am 8.6 8.0 7.4 92 0.6 CALM 0 6 0 3 1021.5 1021.4 0.0
22/02:30am 8.6 6.8 7.2 91 0.7 SSE 6 7 3 4 1021.5 1021.4 0.0
22/02:00am 8.9 7.2 7.5 91 0.7 S 6 7 3 4 1021.7 1021.6 0.0
22/01:30am 9.0 7.1 7.5 90 0.7 S 7 9 4 5 1021.7 1021.6 0.0
22/01:00am 9.1 7.4 7.5 90 0.8 SSE 6 7 3 4 1021.8 1021.7 0.0
22/12:30am 9.2 7.5 7.5 89 0.8 S 6 7 3 4 1021.9 1021.8 0.0
22/12:00am 9.2 8.2 7.2 87 0.9 S 2 7 1 4 1022.2 1022.2 0.0
 
Date/Time
EST
Temp
°C
App
Temp
°C
Dew
Point
°C
Rel
Hum
%
Delta-T
°C
Wind Press
QNH
hPa
Press
MSL
hPa
Rain since
9am
mm
Dir  Spd
km/h
Gust
km/h
Spd
kts
Gust
kts
21/11:30pm 10.1 8.5 7.9 86 1.1 SSE 6 7 3 4 1022.4 1022.4 0.0
21/11:00pm 10.2 8.4 8.0 86 1.1 S 7 9 4 5 1022.4 1022.4 0.0
21/10:30pm 10.4 8.8 8.2 86 1.1 SSE 6 9 3 5 1022.3 1022.3 0.0
21/10:00pm 10.6 9.0 8.0 84 1.3 S 6 9 3 5 1022.3 1022.3 0.0
21/09:30pm 11.1 9.5 8.0 81 1.5 SSE 6 7 3 4 1022.3 1022.3 0.0
21/09:00pm 11.4 9.5 7.7 78 1.8 S 7 7 4 4 1022.1 1022.0 0.0
21/08:30pm 12.2 10.4 8.1 76 2.0 SSE 7 9 4 5 1021.9 1021.8 0.0
21/08:00pm 13.1 11.5 8.6 74 2.3 S 7 9 4 5 1021.7 1021.6 0.0
21/07:30pm 13.5 12.0 9.0 74 2.3 S 7 11 4 6 1021.5 1021.4 0.0
21/07:00pm 13.6 11.7 8.9 73 2.4 S 9 11 5 6 1021.3 1021.2 0.0
21/06:30pm 14.4 13.0 9.4 72 2.6 S 7 9 4 5 1021.1 1021.0 0.0
21/06:00pm 15.1 13.6 9.2 68 3.0 S 7 11 4 6 1020.8 1020.7 0.0
21/05:30pm 16.0 14.1 9.2 64 3.5 SSW 9 9 5 5 1020.5 1020.4 0.0
21/05:00pm 18.1 15.8 8.9 55 4.8 SSW 11 15 6 8 1020.2 1020.1 0.0
21/04:30pm 19.8 16.6 8.5 48 6.0 SSW 15 19 8 10 1019.9 1019.8 0.0
21/04:00pm 20.7 18.2 8.0 44 6.6 SSW 11 15 6 8 1019.6 1019.5 0.0
21/03:30pm 21.4 19.3 8.3 43 6.9 SW 9 17 5 9 1019.4 1019.3 0.0
21/03:00pm 20.7 18.0 9.0 47 6.2 S 13 17 7 9 1019.5 1019.4 0.0
21/02:30pm 19.7 18.0 9.9 53 5.3 SW 9 13 5 7 1019.5 1019.4 0.0
21/02:00pm 19.7 17.9 9.6 52 5.4 S 9 15 5 8 1019.5 1019.4 0.0
21/01:30pm 21.6 19.7 10.4 49 6.2 SW 11 17 6 9 1019.6 1019.5 0.0
21/01:00pm 20.8 19.3 10.6 52 5.6 S 9 17 5 9 1019.8 1019.7 0.0
21/12:30pm 19.5 18.4 10.8 57 4.8 SSW 7 13 4 7 1020.1 1020.0 0.0
21/12:00pm 20.4 19.2 11.6 57 4.9 SE 9 15 5 8 1020.5 1020.4 0.0
21/11:30am 19.8 17.7 11.3 58 4.7 S 13 19 7 10 1020.9 1020.8 0.0
21/11:00am 19.2 18.0 11.7 62 4.2 S 9 15 5 8 1021.3 1021.2 0.0
21/10:30am 17.8 16.6 11.6 67 3.4 S 9 15 5 8 1021.5 1021.4 0.0
21/10:00am 16.6 15.6 12.2 75 2.4 SSE 9 13 5 7 1021.8 1021.7 0.0
21/09:30am 15.1 14.3 12.8 86 1.3 SE 9 13 5 7 1021.9 1021.8 0.0
21/09:00am 13.7 13.5 12.9 95 0.4 NE 6 9 3 5 1021.6 1021.5 0.2
21/08:30am 12.1 10.9 11.5 96 0.3 SE 9 11 5 6 1021.3 1021.2 0.2
21/08:00am 11.4 10.5 10.8 96 0.3 E 6 9 3 5 1021.2 1021.1 0.2
21/07:30am 10.6 9.5 10.0 96 0.3 SSE 6 9 3 5 1020.8 1020.7 0.2
21/07:00am 9.5 8.1 8.9 96 0.3 SSE 6 9 3 5 1020.4 1020.3 0.2
21/06:30am 10.0 8.6 9.4 96 0.3 SSE 7 9 4 5 1020.1 1020.0 0.2
21/06:00am 10.0 8.6 9.4 96 0.3 SSE 7 9 4 5 1019.8 1019.7 0.2
21/05:30am 10.3 8.9 9.7 96 0.3 S 7 11 4 6 1019.5 1019.4 0.2
21/05:00am 9.5 7.9 8.7 95 0.4 SSW 7 9 4 5 1019.5 1019.4 0.2
21/04:30am 10.2 9.0 9.4 95 0.4 SSE 6 7 3 4 1019.1 1019.0 0.2
21/04:00am 9.4 8.7 8.6 95 0.4 SSE 2 7 1 4 1018.9 1018.8 0.2
21/03:30am 10.7 9.6 9.9 95 0.4 SSE 6 7 3 4 1019.0 1018.9 0.2
21/03:00am 10.9 9.8 10.1 95 0.4 S 6 9 3 5 1018.9 1018.8 0.2
21/02:30am 10.8 9.7 10.0 95 0.4 SSE 6 7 3 4 1019.0 1018.9 0.2
21/02:00am 11.2 10.0 10.4 95 0.4 S 7 9 4 5 1018.9 1018.8 0.2
21/01:30am 11.2 10.0 10.3 94 0.5 SSE 7 9 4 5 1019.1 1019.0 0.0
21/01:00am 11.3 10.3 10.4 94 0.5 SSE 6 9 3 5 1019.2 1019.1 0.0
21/12:30am 11.2 10.1 10.1 93 0.6 SSE 6 7 3 4 1019.3 1019.2 0.0
21/12:00am 11.8 10.9 10.7 93 0.6 S 6 7 3 4 1019.4 1019.3 0.0
 
Date/Time
EST
Temp
°C
App
Temp
°C
Dew
Point
°C
Rel
Hum
%
Delta-T
°C
Wind Press
QNH
hPa
Press
MSL
hPa
Rain since
9am
mm
Dir  Spd
km/h
Gust
km/h
Spd
kts
Gust
kts
20/11:30pm 12.2 11.4 11.1 93 0.6 S 6 7 3 4 1019.4 1019.3 0.0
20/11:00pm 12.6 11.9 11.5 93 0.6 S 6 9 3 5 1019.5 1019.4 0.0
20/10:30pm 12.7 12.0 11.4 92 0.7 S 6 7 3 4 1019.5 1019.4 0.0
20/10:00pm 13.0 11.8 11.7 92 0.7 SSW 9 11 5 6 1019.4 1019.3 0.0
20/09:30pm 13.5 12.9 12.2 92 0.7 SSW 7 9 4 5 1019.4 1019.3 0.0
20/09:00pm 13.6 12.6 12.3 92 0.7 SSW 9 11 5 6 1019.3 1019.2 0.0
20/08:30pm 13.6 14.3 12.3 92 0.7 CALM 0 0 0 0 1019.4 1019.3 0.0
20/08:00pm 13.5 13.0 12.2 92 0.7 SSW 6 11 3 6 1019.2 1019.1 0.0
20/07:30pm 13.2 12.5 11.4 89 1.0 SSW 6 7 3 4 1019.0 1018.9 0.0
20/07:00pm 14.1 14.8 12.3 89 1.0 CALM 0 0 0 0 1018.8 1018.7 0.0
20/06:30pm 14.8 14.3 12.5 86 1.3 SSW 7 11 4 6 1018.3 1018.1 0.0
20/06:00pm 15.4 14.9 12.5 83 1.6 SSW 7 11 4 6 1018.0 1017.9 0.0
20/05:30pm 15.8 14.8 12.2 79 2.0 SW 9 11 5 6 1017.9 1017.8 0.0
20/05:00pm 18.4 17.7 13.3 72 2.9 SW 9 13 5 7 1017.7 1017.6 0.0
20/04:30pm 19.2 17.7 13.2 68 3.4 SW 13 17 7 9 1017.5 1017.4 0.0
20/04:00pm 20.0 18.3 13.5 66 3.7 SW 15 17 8 9 1017.3 1017.2 0.0
20/03:30pm 20.3 20.1 13.5 65 3.9 SSE 7 11 4 6 1017.1 1017.0 0.0
20/03:00pm 19.7 19.4 13.2 66 3.7 S 7 9 4 5 1017.0 1016.9 0.0
20/02:30pm 19.4 18.8 13.6 69 3.3 S 9 11 5 6 1017.0 1016.9 0.0
20/02:00pm 19.1 18.7 14.1 73 2.9 SSW 9 15 5 8 1017.0 1016.9 0.0
20/01:30pm 18.7 18.5 13.6 72 2.9 S 7 11 4 6 1017.0 1016.9 0.0
20/01:00pm 18.7 18.9 14.2 75 2.6 SSW 6 11 3 6 1017.2 1017.1 0.0
20/12:30pm 18.8 18.8 14.3 75 2.6 S 7 13 4 7 1017.4 1017.3 0.0
20/12:00pm 18.3 18.4 14.4 78 2.3 SSW 7 11 4 6 1018.0 1017.9 0.0
20/11:30am 18.0 18.3 15.1 83 1.7 SSE 7 9 4 5 1018.4 1018.3 0.0
20/11:00am 17.4 17.7 14.9 85 1.5 NE 7 11 4 6 1018.7 1018.6 0.0

Other Formats:

Comma delimited format used in spreadsheet applications
http://www.bom.gov.au/fwo/IDN60801/IDN60801.95710.axf

JavaScript Object Notation format (JSON) in row-major order
http://www.bom.gov.au/fwo/IDN60801/IDN60801.95710.json